KFFA/FFA METAR and TAF weather

Enter ICAO airport designator
Station Type Date Time Source
KFFA METAR 2022/01/29 11:35 UTC NOAA

KFFA 291135Z AUTO 32010G19KT 290V350 3SM -SN BKN007 OVC015 00/00 A2963 RMK AO2 T00000000


Station Type Date Time Source
KFFA Decoded METAR 2022/01/29 11:35 UTC NOAA

Kill Devil Hills, First Flight Airport, NC, United States (KFFA) 36-01N 075-40W
Jan 29, 2022 - 06:35 AM EST / 2022.01.29 1135 UTC
Wind: from the NW (320 degrees) at 12 MPH (10 KT) gusting to 22 MPH (19 KT) (direction variable):0
Visibility: 3 mile(s):0
Sky conditions: overcast
Weather: light snow
Temperature: 32.0 F (0.0 C)
Windchill: 23 F (-5 C):1
Dew Point: 32.0 F (0.0 C)
Relative Humidity: 100%
Pressure (altimeter): 29.63 in. Hg (1003 hPa)
ob: KFFA 291135Z AUTO 32010G19KT 290V350 3SM -SN BKN007 OVC015 00/00 A2963 RMK AO2 T00000000
cycle: 11

Station Type Date Time Source
KFFA TAF UTC NOAA

Error!

Example: see airport list